createdAt,value
2023-05-13T00:01:21.012Z,130.77
2023-05-13T00:03:47.737Z,130.93
2023-05-13T00:06:14.653Z,127.88
2023-05-13T00:08:41.243Z,131.13
2023-05-13T00:11:08.338Z,132.07
2023-05-13T00:13:34.955Z,132.45
2023-05-13T00:16:02.836Z,129.23
2023-05-13T00:18:29.867Z,129.38
2023-05-13T00:20:56.560Z,130.60
2023-05-13T00:23:23.266Z,128.63
2023-05-13T00:25:49.885Z,123.72
2023-05-13T00:28:16.976Z,123.07
2023-05-13T00:30:45.486Z,125.68
2023-05-13T00:33:12.197Z,121.35
2023-05-13T00:35:38.885Z,122.28
2023-05-13T00:38:05.478Z,122.78
2023-05-13T00:40:34.572Z,120.15
2023-05-13T00:43:01.260Z,122.22
2023-05-13T00:45:28.022Z,123.85
2023-05-13T00:47:54.820Z,120.68
2023-05-13T00:50:21.754Z,124.60
2023-05-13T00:52:51.057Z,121.75
2023-05-13T00:55:18.115Z,118.45
2023-05-13T00:57:44.645Z,120.75
2023-05-13T01:00:11.768Z,118.68
2023-05-13T01:03:01.068Z,118.68
2023-05-13T01:05:42.423Z,116.30
2023-05-13T01:08:11.908Z,113.45
2023-05-13T01:10:47.629Z,116.68
2023-05-13T01:13:23.712Z,117.40
2023-05-13T01:15:59.872Z,114.38
2023-05-13T01:18:36.918Z,115.10
2023-05-13T01:21:05.330Z,109.25
2023-05-13T01:23:32.112Z,112.68
2023-05-13T01:25:58.692Z,109.88
2023-05-13T01:28:25.545Z,111.43
2023-05-13T01:30:52.499Z,112.07
2023-05-13T01:33:19.296Z,110.85
2023-05-13T01:35:47.445Z,111.80
2023-05-13T01:38:15.140Z,110.20
2023-05-13T01:40:42.687Z,111.57
2023-05-13T01:43:09.307Z,109.35
2023-05-13T01:45:36.140Z,108.32
2023-05-13T01:48:02.871Z,110.05
2023-05-13T01:50:29.740Z,111.03
2023-05-13T01:52:57.392Z,108.82
2023-05-13T01:55:23.957Z,108.20
2023-05-13T01:57:50.593Z,105.07
2023-05-13T02:00:17.549Z,107.40
2023-05-13T02:02:44.640Z,104.15
2023-05-13T02:05:11.332Z,103.05
2023-05-13T02:07:37.945Z,101.25
2023-05-13T02:10:04.911Z,101.53
2023-05-13T02:12:31.444Z,99.45
2023-05-13T02:14:58.175Z,98.43
2023-05-13T02:17:24.817Z,101.88
2023-05-13T02:19:51.548Z,102.07
2023-05-13T02:22:18.126Z,102.38
2023-05-13T02:24:44.741Z,100.95
2023-05-13T02:27:12.938Z,100.80
2023-05-13T02:29:39.720Z,97.68
2023-05-13T02:32:06.610Z,97.80
2023-05-13T02:34:33.253Z,95.68
2023-05-13T02:36:59.806Z,99.68
2023-05-13T02:39:26.879Z,100.47
2023-05-13T02:41:53.482Z,97.60
2023-05-13T02:44:20.095Z,95.57
2023-05-13T02:46:46.639Z,97.03
2023-05-13T02:49:14.091Z,95.43
2023-05-13T02:51:40.869Z,93.75
2023-05-13T02:54:07.465Z,92.63
2023-05-13T02:56:34.114Z,96.57
2023-05-13T02:59:00.960Z,93.72
2023-05-13T03:01:27.696Z,95.38
2023-05-13T03:03:54.361Z,91.28
2023-05-13T03:06:21.030Z,93.55
2023-05-13T03:08:47.704Z,90.90
2023-05-13T03:11:14.268Z,90.68
2023-05-13T03:13:40.944Z,88.15
2023-05-13T03:16:07.645Z,88.32
2023-05-13T03:18:35.382Z,88.00
2023-05-13T03:21:02.082Z,88.63
2023-05-13T03:23:29.951Z,87.47
2023-05-13T03:25:56.623Z,87.97
2023-05-13T03:28:23.167Z,86.45
2023-05-13T03:30:49.928Z,82.47
2023-05-13T03:33:16.572Z,82.05
2023-05-13T03:35:43.120Z,81.57
2023-05-13T03:38:09.683Z,80.18
2023-05-13T03:40:36.262Z,82.65
2023-05-13T03:43:02.889Z,80.57
2023-05-13T03:45:29.476Z,79.25
2023-05-13T03:47:56.814Z,79.97
2023-05-13T03:50:23.687Z,79.72
2023-05-13T03:52:50.736Z,76.18
2023-05-13T03:55:17.301Z,74.72
2023-05-13T03:57:48.342Z,73.15
2023-05-13T04:00:15.691Z,73.55
2023-05-13T04:02:42.518Z,71.85
2023-05-13T04:05:09.653Z,73.95
2023-05-13T04:07:36.386Z,74.15
2023-05-13T04:10:03.058Z,73.10
2023-05-13T04:12:30.919Z,70.43
2023-05-13T04:14:57.540Z,72.15
2023-05-13T04:17:24.259Z,72.35
2023-05-13T04:19:54.790Z,70.95
2023-05-13T04:22:21.977Z,69.95
2023-05-13T04:24:52.044Z,69.43
2023-05-13T04:27:18.743Z,68.13
2023-05-13T04:29:45.444Z,68.28
2023-05-13T04:32:16.062Z,68.05
2023-05-13T04:34:42.828Z,70.80
2023-05-13T04:37:09.508Z,69.60
2023-05-13T04:39:36.220Z,70.93
2023-05-13T04:42:02.800Z,69.55
2023-05-13T04:44:29.405Z,69.50
2023-05-13T04:46:55.993Z,69.55
2023-05-13T04:49:22.560Z,71.32
2023-05-13T04:51:49.370Z,72.90
2023-05-13T04:54:16.253Z,72.50
2023-05-13T04:56:42.859Z,72.30
2023-05-13T04:59:09.850Z,71.85
2023-05-13T05:01:36.494Z,70.45
2023-05-13T05:04:03.127Z,70.72
2023-05-13T05:06:29.694Z,71.05
2023-05-13T05:08:56.643Z,72.63
2023-05-13T05:11:23.206Z,69.35
2023-05-13T05:13:49.768Z,73.93
2023-05-13T05:16:16.352Z,73.90
2023-05-13T05:18:43.626Z,75.20
2023-05-13T05:21:10.668Z,76.70
2023-05-13T05:23:37.267Z,77.22
2023-05-13T05:26:10.972Z,80.03
2023-05-13T05:28:40.113Z,79.20
2023-05-13T05:31:07.226Z,82.55
2023-05-13T05:33:33.825Z,80.55
2023-05-13T05:36:00.391Z,79.60
2023-05-13T05:38:27.225Z,82.97
2023-05-13T05:40:54.013Z,82.95
2023-05-13T05:43:20.684Z,84.78
2023-05-13T05:45:47.315Z,86.00
2023-05-13T05:48:13.948Z,89.40
2023-05-13T05:50:41.640Z,91.43
2023-05-13T05:53:08.174Z,92.07
2023-05-13T05:55:34.889Z,94.97
2023-05-13T05:58:05.471Z,96.57
2023-05-13T06:00:33.367Z,93.88
2023-05-13T06:03:00.213Z,96.78
2023-05-13T06:05:27.032Z,97.70
2023-05-13T06:07:53.609Z,98.22
2023-05-13T06:10:20.599Z,100.63
2023-05-13T06:12:47.276Z,105.10
2023-05-13T06:15:13.876Z,100.13
2023-05-13T06:17:40.547Z,104.63
2023-05-13T06:20:07.523Z,103.32
2023-05-13T06:22:34.447Z,102.03
2023-05-13T06:25:01.090Z,104.63
2023-05-13T06:27:27.673Z,108.82
2023-05-13T06:29:54.302Z,109.85
2023-05-13T06:32:20.943Z,109.38
2023-05-13T06:34:48.396Z,110.13
2023-05-13T06:37:15.461Z,111.93
2023-05-13T06:39:42.037Z,113.47
2023-05-13T06:42:08.611Z,115.88
2023-05-13T06:44:35.320Z,116.18
2023-05-13T06:47:03.067Z,118.20
2023-05-13T06:49:29.691Z,115.82
2023-05-13T06:51:56.693Z,118.50
2023-05-13T06:54:23.305Z,118.22
2023-05-13T06:56:49.951Z,116.63
2023-05-13T06:59:16.570Z,117.85
2023-05-13T07:01:43.311Z,117.82
2023-05-13T07:04:09.941Z,119.80
2023-05-13T07:06:36.772Z,122.25
2023-05-13T07:09:08.015Z,125.30
2023-05-13T07:11:35.912Z,123.85
2023-05-13T07:14:02.513Z,124.80
2023-05-13T07:16:29.326Z,120.80
2023-05-13T07:18:55.900Z,126.68
2023-05-13T07:21:22.536Z,127.13
2023-05-13T07:23:49.241Z,130.45
2023-05-13T07:26:15.882Z,134.95
2023-05-13T07:28:43.455Z,135.70
2023-05-13T07:31:10.434Z,144.15
2023-05-13T07:33:37.189Z,133.93
2023-05-13T07:36:04.035Z,127.22
2023-05-13T07:38:30.625Z,119.28
2023-05-13T07:40:57.199Z,116.90
2023-05-13T07:43:24.094Z,115.30
2023-05-13T07:45:51.389Z,104.18
2023-05-13T07:48:18.661Z,101.53
2023-05-13T07:50:46.115Z,93.13
2023-05-13T07:53:12.942Z,89.68
2023-05-13T07:55:39.583Z,83.45
2023-05-13T07:58:06.698Z,74.65
2023-05-13T08:00:33.399Z,65.30
2023-05-13T08:03:00.104Z,61.30
2023-05-13T08:05:26.843Z,61.33
2023-05-13T08:07:53.438Z,74.85
2023-05-13T08:10:20.088Z,81.70
2023-05-13T08:12:51.173Z,64.32
2023-05-13T08:15:19.078Z,60.10
2023-05-13T08:17:45.752Z,63.25
2023-05-13T08:20:12.525Z,61.53
2023-05-13T08:22:39.128Z,64.70
2023-05-13T08:25:07.139Z,88.72
2023-05-13T08:27:35.028Z,90.65
2023-05-13T08:30:01.617Z,85.80
2023-05-13T08:32:28.218Z,87.10
2023-05-13T08:34:54.857Z,90.40
2023-05-13T08:37:21.759Z,97.07
2023-05-13T08:39:48.311Z,107.65
2023-05-13T08:42:19.359Z,97.10
2023-05-13T08:44:46.903Z,101.43
2023-05-13T08:47:16.044Z,93.20
2023-05-13T08:49:42.896Z,100.60
2023-05-13T08:52:09.481Z,106.60
2023-05-13T08:54:37.993Z,114.82
2023-05-13T08:57:05.077Z,112.65
2023-05-13T08:59:31.665Z,124.50
2023-05-13T09:02:00.291Z,135.15
2023-05-13T09:04:26.952Z,143.90
2023-05-13T09:06:53.888Z,149.13
2023-05-13T09:09:20.953Z,160.45
2023-05-13T09:11:48.675Z,126.10
2023-05-13T09:14:19.533Z,168.27
2023-05-13T09:16:47.925Z,185.07
2023-05-13T09:19:14.726Z,203.43
2023-05-13T09:21:43.746Z,188.25
2023-05-13T09:24:11.670Z,191.60
2023-05-13T09:26:39.101Z,188.18
2023-05-13T09:29:20.674Z,204.48
2023-05-13T09:31:51.222Z,182.63
2023-05-13T09:34:27.915Z,175.10
2023-05-13T09:37:08.354Z,184.05
2023-05-13T09:39:39.867Z,193.35
2023-05-13T09:42:14.659Z,152.05
2023-05-13T09:44:42.233Z,115.40
2023-05-13T09:47:13.898Z,107.30
2023-05-13T09:49:56.898Z,98.10
2023-05-13T09:52:23.508Z,86.80
2023-05-13T09:54:50.114Z,96.65
2023-05-13T09:57:16.755Z,84.90
2023-05-13T09:59:43.390Z,74.38
2023-05-13T10:02:13.031Z,117.40
2023-05-13T10:04:40.162Z,146.48
2023-05-13T10:07:08.620Z,144.50
2023-05-13T10:09:36.786Z,96.65
2023-05-13T10:12:06.752Z,79.30
2023-05-13T10:14:33.469Z,64.88
2023-05-13T10:17:00.417Z,50.00
2023-05-13T10:19:27.219Z,41.47
2023-05-13T10:21:54.459Z,36.67
2023-05-13T10:24:22.229Z,34.13
2023-05-13T10:26:52.727Z,35.90
2023-05-13T10:29:19.477Z,34.67
2023-05-13T10:31:47.878Z,35.33
2023-05-13T10:34:14.681Z,40.72
2023-05-13T10:37:14.004Z,46.72
2023-05-13T10:40:06.629Z,44.53
2023-05-13T10:42:44.919Z,49.30
2023-05-13T10:45:11.541Z,45.97
2023-05-13T10:47:39.165Z,54.00
2023-05-13T10:50:07.713Z,52.55
2023-05-13T10:53:00.485Z,65.05
2023-05-13T10:55:28.013Z,65.55
2023-05-13T10:58:12.594Z,60.83
2023-05-13T11:00:41.484Z,65.05
2023-05-13T11:03:12.234Z,69.38
2023-05-13T11:05:41.397Z,55.30
2023-05-13T11:08:08.078Z,52.85
2023-05-13T11:10:34.932Z,51.13
2023-05-13T11:13:09.575Z,53.83
2023-05-13T11:15:48.985Z,53.08
2023-05-13T11:18:15.707Z,48.85
2023-05-13T11:20:53.482Z,50.97
2023-05-13T11:23:21.147Z,57.97
2023-05-13T11:26:12.450Z,65.80
2023-05-13T11:29:00.366Z,67.03
2023-05-13T11:31:29.094Z,74.97
2023-05-13T11:34:09.617Z,77.43
2023-05-13T11:36:38.500Z,73.85
2023-05-13T11:39:22.538Z,81.78
2023-05-13T11:41:54.773Z,69.10
2023-05-13T11:44:23.017Z,60.33
2023-05-13T11:46:56.669Z,66.57
2023-05-13T11:49:55.977Z,59.57
2023-05-13T11:52:22.683Z,61.85
2023-05-13T11:54:54.608Z,72.20
2023-05-13T11:57:28.632Z,56.72
2023-05-13T11:59:59.910Z,52.78
2023-05-13T12:02:29.384Z,59.15
2023-05-13T12:04:59.909Z,54.28
2023-05-13T12:07:27.437Z,58.97
2023-05-13T12:09:57.601Z,67.88
2023-05-13T12:12:25.278Z,50.47
2023-05-13T12:14:53.000Z,56.63
2023-05-13T12:17:20.876Z,61.83
2023-05-13T12:20:06.797Z,57.55
2023-05-13T12:22:37.748Z,54.17
2023-05-13T12:25:35.795Z,52.15
2023-05-13T12:28:09.274Z,48.63
2023-05-13T12:30:41.000Z,49.85
2023-05-13T12:33:18.922Z,44.70
2023-05-13T12:35:48.429Z,51.95
2023-05-13T12:38:20.011Z,63.75
2023-05-13T12:40:47.997Z,67.47
2023-05-13T12:43:16.646Z,61.22
2023-05-13T12:45:45.977Z,69.43
2023-05-13T12:48:14.468Z,76.80
2023-05-13T12:50:41.098Z,96.50
2023-05-13T12:53:07.947Z,107.45
2023-05-13T12:55:39.926Z,73.88
2023-05-13T12:58:10.980Z,84.95
2023-05-13T13:00:37.977Z,78.00
2023-05-13T13:03:04.788Z,102.32
2023-05-13T13:05:31.944Z,97.57
2023-05-13T13:07:58.645Z,114.28
2023-05-13T13:10:25.227Z,126.63
2023-05-13T13:12:52.277Z,114.70
2023-05-13T13:15:18.990Z,113.88
2023-05-13T13:17:45.693Z,125.32
2023-05-13T13:20:12.557Z,118.00
2023-05-13T13:22:39.265Z,116.90
2023-05-13T13:25:06.864Z,132.65
2023-05-13T13:27:35.037Z,135.23
2023-05-13T13:30:01.885Z,142.05
2023-05-13T13:32:28.469Z,151.27
2023-05-13T13:34:55.178Z,144.63
2023-05-13T13:37:21.947Z,142.10
2023-05-13T13:39:48.501Z,135.85
2023-05-13T13:42:15.086Z,138.88
2023-05-13T13:44:41.625Z,162.13
2023-05-13T13:47:09.689Z,151.80
2023-05-13T13:49:36.443Z,175.02
2023-05-13T13:52:03.045Z,179.85
2023-05-13T13:54:29.691Z,155.63
2023-05-13T13:56:56.377Z,182.32
2023-05-13T13:59:23.186Z,190.80
2023-05-13T14:01:49.831Z,174.00
2023-05-13T14:04:20.299Z,174.45
2023-05-13T14:06:47.174Z,157.82
2023-05-13T14:09:13.866Z,191.00
2023-05-13T14:11:40.514Z,181.02
2023-05-13T14:14:08.369Z,157.90
2023-05-13T14:16:35.876Z,179.05
2023-05-13T14:19:02.651Z,192.35
2023-05-13T14:21:29.288Z,167.57
2023-05-13T14:23:55.924Z,167.13
2023-05-13T14:26:22.510Z,167.75
2023-05-13T14:28:49.082Z,148.05
2023-05-13T14:31:15.859Z,149.30
2023-05-13T14:33:42.443Z,138.90
2023-05-13T14:36:11.137Z,148.98
2023-05-13T14:38:39.838Z,172.48
2023-05-13T14:41:06.435Z,177.07
2023-05-13T14:43:33.051Z,177.80
2023-05-13T14:45:59.696Z,173.20
2023-05-13T14:48:26.787Z,162.45
2023-05-13T14:50:54.114Z,184.55
2023-05-13T14:53:20.922Z,162.40
2023-05-13T14:55:49.417Z,157.52
2023-05-13T14:58:18.022Z,149.82
2023-05-13T15:00:44.762Z,150.50
2023-05-13T15:03:11.853Z,148.70
2023-05-13T15:05:38.822Z,160.52
2023-05-13T15:08:05.466Z,152.93
2023-05-13T15:10:32.059Z,161.93
2023-05-13T15:12:59.026Z,186.43
2023-05-13T15:15:25.701Z,200.00
2023-05-13T15:17:52.904Z,213.57
2023-05-13T15:20:19.672Z,220.82
2023-05-13T15:22:46.347Z,224.07
2023-05-13T15:25:13.119Z,218.90
2023-05-13T15:27:39.709Z,194.35
2023-05-13T15:30:07.156Z,195.25
2023-05-13T15:32:33.792Z,212.48
2023-05-13T15:35:00.396Z,198.85
2023-05-13T15:37:27.058Z,193.10
2023-05-13T15:39:54.256Z,194.80
2023-05-13T15:42:21.375Z,193.98
2023-05-13T15:44:47.947Z,195.27
2023-05-13T15:47:14.582Z,188.02
2023-05-13T15:49:41.372Z,185.82
2023-05-13T15:52:07.920Z,188.82
2023-05-13T15:54:34.721Z,184.10
2023-05-13T15:57:01.337Z,161.52
2023-05-13T15:59:27.893Z,177.10
2023-05-13T16:01:54.556Z,185.25
2023-05-13T16:04:21.305Z,182.23
2023-05-13T16:06:47.901Z,174.68
2023-05-13T16:09:14.590Z,184.85
2023-05-13T16:11:43.371Z,183.27
2023-05-13T16:14:10.018Z,180.02
2023-05-13T16:16:36.592Z,197.02
2023-05-13T16:19:03.944Z,164.77
2023-05-13T16:21:31.708Z,167.55
2023-05-13T16:23:58.419Z,177.55
2023-05-13T16:26:25.040Z,189.98
2023-05-13T16:28:51.894Z,180.55
2023-05-13T16:31:18.651Z,186.27
2023-05-13T16:33:45.272Z,205.50
2023-05-13T16:36:12.004Z,200.90
2023-05-13T16:38:41.378Z,214.02
2023-05-13T16:41:08.658Z,216.27
2023-05-13T16:43:35.279Z,213.63
2023-05-13T16:46:01.982Z,203.38
2023-05-13T16:48:28.719Z,205.65
2023-05-13T16:50:56.270Z,219.00
2023-05-13T16:53:23.252Z,196.73
2023-05-13T16:55:50.207Z,178.40
2023-05-13T16:58:17.370Z,163.73
2023-05-13T17:00:44.537Z,164.65
2023-05-13T17:03:13.341Z,164.98
2023-05-13T17:05:40.448Z,184.77
2023-05-13T17:08:06.989Z,183.23
2023-05-13T17:10:33.718Z,200.80
2023-05-13T17:13:00.309Z,205.98
2023-05-13T17:15:26.956Z,212.75
2023-05-13T17:17:53.623Z,216.70
2023-05-13T17:20:20.494Z,232.63
2023-05-13T17:22:47.609Z,241.52
2023-05-13T17:25:14.876Z,237.73
2023-05-13T17:27:41.542Z,233.25
2023-05-13T17:30:09.052Z,240.60
2023-05-13T17:32:35.914Z,228.27
2023-05-13T17:35:04.078Z,222.55
2023-05-13T17:37:30.678Z,242.40
2023-05-13T17:40:00.742Z,253.38
2023-05-13T17:42:29.025Z,255.30
2023-05-13T17:44:56.056Z,264.70
2023-05-13T17:47:22.770Z,260.05
2023-05-13T17:49:49.619Z,262.30
2023-05-13T17:52:16.187Z,263.52
2023-05-13T17:54:42.752Z,258.52
2023-05-13T17:57:11.027Z,261.30
2023-05-13T17:59:37.773Z,253.10
2023-05-13T18:02:04.525Z,257.52
2023-05-13T18:04:31.255Z,257.05
2023-05-13T18:06:57.856Z,255.63
2023-05-13T18:09:24.520Z,259.75
2023-05-13T18:11:51.137Z,249.27
2023-05-13T18:14:17.791Z,260.52
2023-05-13T18:16:44.465Z,253.55
2023-05-13T18:19:11.090Z,259.88
2023-05-13T18:21:37.804Z,248.73
2023-05-13T18:24:04.704Z,243.50
2023-05-13T18:26:31.272Z,237.25
2023-05-13T18:28:57.808Z,239.57
2023-05-13T18:31:24.442Z,231.35
2023-05-13T18:33:51.108Z,214.00
2023-05-13T18:36:17.756Z,204.27
2023-05-13T18:38:45.920Z,192.45
2023-05-13T18:41:12.618Z,182.07
2023-05-13T18:43:39.189Z,166.23
2023-05-13T18:46:06.191Z,145.68
2023-05-13T18:48:32.771Z,139.88
2023-05-13T18:50:59.437Z,123.68
2023-05-13T18:53:26.046Z,114.20
2023-05-13T18:55:52.928Z,111.82
2023-05-13T18:58:19.565Z,105.75
2023-05-13T19:00:46.296Z,97.35
2023-05-13T19:03:12.976Z,89.32
2023-05-13T19:05:39.648Z,75.22
2023-05-13T19:08:07.994Z,72.70
2023-05-13T19:10:39.364Z,65.82
2023-05-13T19:13:07.189Z,62.17
2023-05-13T19:15:34.208Z,58.83
2023-05-13T19:18:01.128Z,52.97
2023-05-13T19:20:27.961Z,52.13
2023-05-13T19:22:54.505Z,49.80
2023-05-13T19:25:21.110Z,49.90
2023-05-13T19:27:49.374Z,45.10
2023-05-13T19:30:16.138Z,45.70
2023-05-13T19:32:43.686Z,42.40
2023-05-13T19:35:11.163Z,44.20
2023-05-13T19:37:37.806Z,41.60
2023-05-13T19:40:05.033Z,41.97
2023-05-13T19:42:31.702Z,42.83
2023-05-13T19:44:58.255Z,38.45
2023-05-13T19:47:26.923Z,36.30
2023-05-13T19:49:53.618Z,37.05
2023-05-13T19:52:20.260Z,35.33
2023-05-13T19:54:46.823Z,32.67
2023-05-13T19:57:13.455Z,31.10
2023-05-13T19:59:41.680Z,28.60
2023-05-13T20:02:08.827Z,26.58
2023-05-13T20:04:35.676Z,24.88
2023-05-13T20:07:02.284Z,26.55
2023-05-13T20:09:28.865Z,23.88
2023-05-13T20:11:55.526Z,23.67
2023-05-13T20:14:28.747Z,22.27
2023-05-13T20:16:55.398Z,22.77
2023-05-13T20:19:22.161Z,22.85
2023-05-13T20:21:48.835Z,21.33
2023-05-13T20:24:15.781Z,20.98
2023-05-13T20:26:42.327Z,20.90
2023-05-13T20:29:08.856Z,20.75
2023-05-13T20:31:35.496Z,22.33
2023-05-13T20:34:03.412Z,21.75
2023-05-13T20:36:30.122Z,21.38
2023-05-13T20:38:56.670Z,21.00
2023-05-13T20:41:23.851Z,22.08
2023-05-13T20:43:50.584Z,23.05
2023-05-13T20:46:17.527Z,22.92
2023-05-13T20:48:44.198Z,24.08
2023-05-13T20:51:10.765Z,24.50
2023-05-13T20:53:37.728Z,24.08
2023-05-13T20:56:04.926Z,26.80
2023-05-13T20:58:31.531Z,25.88
2023-05-13T21:00:58.174Z,26.80
2023-05-13T21:03:25.132Z,28.52
2023-05-13T21:05:51.819Z,30.50
2023-05-13T21:08:18.468Z,31.55
2023-05-13T21:10:45.063Z,32.67
2023-05-13T21:13:11.832Z,32.45
2023-05-13T21:15:38.673Z,33.85
2023-05-13T21:18:05.459Z,37.20
2023-05-13T21:20:32.784Z,40.03
2023-05-13T21:23:00.984Z,43.45
2023-05-13T21:25:27.718Z,46.95
2023-05-13T21:27:54.404Z,49.75
2023-05-13T21:30:21.095Z,47.33
2023-05-13T21:32:47.860Z,51.78
2023-05-13T21:35:14.472Z,53.60
2023-05-13T21:37:41.087Z,57.03
2023-05-13T21:40:08.705Z,56.88
2023-05-13T21:42:35.761Z,58.20
2023-05-13T21:45:02.920Z,58.75
2023-05-13T21:47:29.653Z,61.80
2023-05-13T21:49:56.440Z,64.85
2023-05-13T21:52:23.036Z,64.97
2023-05-13T21:54:49.704Z,68.88
2023-05-13T21:57:16.676Z,67.45
2023-05-13T21:59:43.272Z,76.63
2023-05-13T22:02:10.213Z,72.95
2023-05-13T22:04:36.954Z,76.50
2023-05-13T22:07:03.658Z,76.25
2023-05-13T22:09:30.250Z,78.75
2023-05-13T22:11:56.824Z,80.47
2023-05-13T22:14:23.396Z,83.22
2023-05-13T22:17:00.924Z,81.35
2023-05-13T22:22:01.743Z,78.78
2023-05-13T22:24:28.295Z,88.65
2023-05-13T22:26:54.889Z,93.30
2023-05-13T22:29:21.560Z,95.03
2023-05-13T22:31:48.164Z,96.55
2023-05-13T22:34:14.888Z,97.65
2023-05-13T22:36:43.810Z,101.25
2023-05-13T22:39:12.229Z,102.95
2023-05-13T22:41:38.968Z,107.05
2023-05-13T22:44:05.774Z,104.07
2023-05-13T22:46:32.479Z,106.78
2023-05-13T22:48:59.163Z,110.65
2023-05-13T22:51:25.751Z,108.95
2023-05-13T22:53:52.334Z,108.28
2023-05-13T22:56:18.955Z,111.55
2023-05-13T22:58:46.132Z,112.50
2023-05-13T23:01:13.004Z,110.18
2023-05-13T23:03:39.637Z,114.50
2023-05-13T23:06:06.362Z,111.70
2023-05-13T23:08:32.953Z,113.43
2023-05-13T23:10:59.600Z,114.43
2023-05-13T23:13:26.295Z,113.85
2023-05-13T23:15:52.843Z,113.38
2023-05-13T23:18:19.630Z,121.25
2023-05-13T23:20:51.180Z,118.68
2023-05-13T23:23:17.808Z,116.40
2023-05-13T23:25:48.248Z,121.20
2023-05-13T23:28:15.190Z,122.53
2023-05-13T23:30:42.043Z,119.72
2023-05-13T23:33:08.980Z,121.53
2023-05-13T23:35:35.785Z,118.22
2023-05-13T23:38:02.589Z,116.43
2023-05-13T23:40:29.182Z,118.03
2023-05-13T23:42:55.755Z,114.40
2023-05-13T23:45:22.423Z,114.97
2023-05-13T23:47:50.358Z,113.07
2023-05-13T23:50:17.061Z,113.13
2023-05-13T23:52:43.775Z,110.05
2023-05-13T23:55:10.483Z,108.82
2023-05-13T23:57:37.035Z,115.45
